createdAt,value
2017-12-27T00:02:15.692Z,94.27
2017-12-27T00:04:49.608Z,94.22
2017-12-27T00:07:23.031Z,94.20
2017-12-27T00:09:56.378Z,94.23
2017-12-27T00:36:50.447Z,95.14
2017-12-27T00:39:18.037Z,95.28
2017-12-27T00:41:47.466Z,95.28
2017-12-27T00:44:17.724Z,95.27
2017-12-27T00:46:46.752Z,95.34
2017-12-27T00:49:14.371Z,95.40
2017-12-27T00:51:44.099Z,95.46
2017-12-27T00:54:12.761Z,95.48
2017-12-27T00:56:40.428Z,95.48
2017-12-27T00:59:08.895Z,95.52
2017-12-27T01:01:36.501Z,95.57
2017-12-27T01:04:04.142Z,95.68
2017-12-27T01:06:31.793Z,95.75
2017-12-27T01:08:59.565Z,95.76
2017-12-27T01:11:28.909Z,95.81
2017-12-27T01:13:57.530Z,95.84
2017-12-27T01:16:25.157Z,95.88
2017-12-27T01:18:54.541Z,95.88
2017-12-27T01:21:22.169Z,95.91
2017-12-27T01:23:52.520Z,95.97
2017-12-27T01:26:20.922Z,96.05
2017-12-27T01:28:48.596Z,96.13
2017-12-27T01:31:16.426Z,96.18
2017-12-27T01:33:44.145Z,96.22
2017-12-27T01:36:11.811Z,96.26
2017-12-27T01:38:39.445Z,96.33
2017-12-27T01:41:07.106Z,96.39
2017-12-27T01:43:34.679Z,96.44
2017-12-27T01:46:02.434Z,96.43
2017-12-27T01:48:30.031Z,96.42
2017-12-27T01:51:00.119Z,96.40
2017-12-27T01:53:27.908Z,96.36
2017-12-27T01:55:55.562Z,96.38
2017-12-27T01:58:25.127Z,96.44
2017-12-27T02:00:52.773Z,96.45
2017-12-27T02:03:21.318Z,96.39
2017-12-27T02:05:50.558Z,96.42
2017-12-27T02:08:18.223Z,96.44
2017-12-27T02:10:46.013Z,96.62
2017-12-27T02:13:13.929Z,96.73
2017-12-27T02:15:41.580Z,96.63
2017-12-27T02:18:09.240Z,96.63
2017-12-27T02:20:36.858Z,96.59
2017-12-27T02:23:04.571Z,96.54
2017-12-27T02:25:32.165Z,96.51
2017-12-27T02:28:02.203Z,96.48
2017-12-27T02:30:30.599Z,96.46
2017-12-27T02:32:58.209Z,96.46
2017-12-27T02:35:26.602Z,96.41
2017-12-27T02:37:54.235Z,96.42
2017-12-27T02:40:25.759Z,96.44
2017-12-27T02:42:54.181Z,96.43
2017-12-27T02:45:21.979Z,96.48
2017-12-27T02:47:51.221Z,96.51
2017-12-27T02:50:18.936Z,96.54
2017-12-27T02:52:46.570Z,96.55
2017-12-27T02:55:14.228Z,96.57
2017-12-27T02:57:41.850Z,96.62
2017-12-27T03:00:10.627Z,96.64
2017-12-27T03:02:39.889Z,96.75
2017-12-27T03:05:08.626Z,96.83
2017-12-27T03:07:36.262Z,96.91
2017-12-27T03:10:03.918Z,96.95
2017-12-27T03:12:31.538Z,97.06
2017-12-27T03:15:00.060Z,97.11
2017-12-27T03:17:27.704Z,97.09
2017-12-27T03:19:55.355Z,97.09
2017-12-27T03:22:23.893Z,97.10
2017-12-27T03:24:51.533Z,97.10
2017-12-27T03:27:22.021Z,97.08
2017-12-27T03:29:49.682Z,97.08
2017-12-27T03:32:17.420Z,97.13
2017-12-27T03:34:46.926Z,97.06
2017-12-27T03:39:50.138Z,96.94
2017-12-27T03:42:20.351Z,96.90
2017-12-27T03:44:49.780Z,96.88
2017-12-27T03:47:17.586Z,96.87
2017-12-27T03:49:45.272Z,96.85
2017-12-27T03:52:12.969Z,96.82
2017-12-27T03:54:40.635Z,96.80
2017-12-27T03:57:08.320Z,96.79
2017-12-27T03:59:36.905Z,96.73
2017-12-27T04:02:04.573Z,96.67
2017-12-27T04:04:33.123Z,96.65
2017-12-27T04:07:01.043Z,96.59
2017-12-27T04:09:28.673Z,96.52
2017-12-27T04:11:57.036Z,96.50
2017-12-27T04:14:24.961Z,96.47
2017-12-27T04:16:55.214Z,96.46
2017-12-27T04:19:22.846Z,96.45
2017-12-27T04:21:50.540Z,96.38
2017-12-27T04:24:18.150Z,96.26
2017-12-27T04:26:45.846Z,96.22
2017-12-27T04:29:16.173Z,96.24
2017-12-27T04:31:44.068Z,96.20
2017-12-27T04:34:11.789Z,96.17
2017-12-27T04:36:42.225Z,96.13
2017-12-27T04:39:09.858Z,96.12
2017-12-27T04:41:37.646Z,96.09
2017-12-27T04:44:05.270Z,96.16
2017-12-27T04:46:32.899Z,96.18
2017-12-27T04:49:00.522Z,96.21
2017-12-27T04:51:29.364Z,96.17
2017-12-27T04:53:57.740Z,96.13
2017-12-27T04:56:25.324Z,96.08
2017-12-27T04:58:52.923Z,96.17
2017-12-27T05:01:20.526Z,96.23
2017-12-27T05:03:48.245Z,96.29
2017-12-27T05:06:16.236Z,96.33
2017-12-27T05:08:43.890Z,96.38
2017-12-27T05:11:11.490Z,96.44
2017-12-27T05:13:39.352Z,96.47
2017-12-27T05:16:06.934Z,96.48
2017-12-27T05:18:35.571Z,96.46
2017-12-27T05:21:03.260Z,96.49
2017-12-27T05:23:31.848Z,96.55
2017-12-27T05:25:59.452Z,96.53
2017-12-27T05:28:29.218Z,96.48
2017-12-27T05:30:58.223Z,96.46
2017-12-27T05:33:25.856Z,96.42
2017-12-27T05:35:54.241Z,96.38
2017-12-27T05:38:23.513Z,96.37
2017-12-27T05:40:51.195Z,96.33
2017-12-27T05:43:20.424Z,96.30
2017-12-27T05:45:48.100Z,96.29
2017-12-27T05:48:15.744Z,96.32
2017-12-27T05:50:43.390Z,96.35
2017-12-27T05:53:11.035Z,96.36
2017-12-27T05:55:41.120Z,96.33
2017-12-27T05:58:08.864Z,96.31
2017-12-27T06:00:38.116Z,96.33
2017-12-27T06:03:05.855Z,96.32
2017-12-27T06:05:33.474Z,96.32
2017-12-27T06:08:01.136Z,96.25
2017-12-27T06:10:30.537Z,96.19
2017-12-27T06:12:58.262Z,96.16
2017-12-27T06:15:26.298Z,96.11
2017-12-27T06:17:54.212Z,96.10
2017-12-27T06:20:21.789Z,96.05
2017-12-27T06:22:49.554Z,96.04
2017-12-27T06:25:17.196Z,96.04
2017-12-27T06:27:45.130Z,96.06
2017-12-27T06:30:14.457Z,96.06
2017-12-27T06:32:43.463Z,96.08
2017-12-27T06:35:11.198Z,96.07
2017-12-27T06:37:39.609Z,96.06
2017-12-27T06:40:07.229Z,96.04
2017-12-27T06:42:34.906Z,96.03
2017-12-27T06:45:02.608Z,96.03
2017-12-27T06:47:30.221Z,96.01
2017-12-27T06:50:01.007Z,95.99
2017-12-27T06:55:01.183Z,96.00
2017-12-27T06:57:29.555Z,96.00
2017-12-27T06:59:59.886Z,95.99
2017-12-27T07:02:27.607Z,95.99
2017-12-27T07:04:55.342Z,95.96
2017-12-27T07:07:22.979Z,95.97
2017-12-27T07:09:50.835Z,95.99
2017-12-27T07:12:18.608Z,95.95
2017-12-27T07:14:47.604Z,95.90
2017-12-27T07:17:15.293Z,95.90
2017-12-27T07:19:42.878Z,95.87
2017-12-27T07:22:10.728Z,95.89
2017-12-27T07:24:38.357Z,95.86
2017-12-27T07:27:06.014Z,95.86
2017-12-27T07:29:33.829Z,95.82
2017-12-27T07:32:03.227Z,95.80
2017-12-27T07:34:31.120Z,95.80
2017-12-27T07:37:00.059Z,95.75
2017-12-27T07:39:28.471Z,95.71
2017-12-27T07:42:00.584Z,95.67
2017-12-27T07:44:28.391Z,95.65
2017-12-27T07:46:58.161Z,95.61
2017-12-27T07:52:12.686Z,95.55
2017-12-27T07:54:40.343Z,95.49
2017-12-27T07:57:09.120Z,95.41
2017-12-27T07:59:36.878Z,95.41
2017-12-27T08:02:04.610Z,95.39
2017-12-27T08:04:33.528Z,95.32
2017-12-27T08:07:02.773Z,95.21
2017-12-27T08:09:32.298Z,95.17
2017-12-27T08:12:01.770Z,95.06
2017-12-27T08:14:29.512Z,95.01
2017-12-27T08:16:57.125Z,94.94
2017-12-27T08:19:27.409Z,94.96
2017-12-27T08:21:55.120Z,94.92
2017-12-27T08:24:22.872Z,94.88
2017-12-27T08:26:50.573Z,94.82
2017-12-27T08:29:19.226Z,94.80
2017-12-27T08:31:46.904Z,94.76
2017-12-27T08:47:15.042Z,94.56
2017-12-27T08:49:42.694Z,94.58
2017-12-27T08:52:10.425Z,94.45
2017-12-27T08:54:38.113Z,94.43
2017-12-27T08:57:06.849Z,94.35
2017-12-27T08:59:34.537Z,94.23
2017-12-27T09:02:02.347Z,93.96
2017-12-27T09:04:30.999Z,93.90
2017-12-27T09:07:01.837Z,94.00
2017-12-27T09:09:29.772Z,93.93
2017-12-27T09:11:57.485Z,93.85
2017-12-27T09:14:26.443Z,93.80
2017-12-27T09:16:54.202Z,93.85
2017-12-27T09:19:22.399Z,93.95
2017-12-27T09:21:50.106Z,94.07
2017-12-27T09:24:17.996Z,93.96
2017-12-27T09:26:47.030Z,93.97
2017-12-27T09:29:15.600Z,93.90
2017-12-27T09:31:43.315Z,93.80
2017-12-27T09:34:11.029Z,93.71
2017-12-27T09:36:40.461Z,93.67
2017-12-27T09:39:08.164Z,93.05
2017-12-27T09:41:35.904Z,92.88
2017-12-27T09:44:05.410Z,92.68
2017-12-27T09:46:34.625Z,92.52
2017-12-27T09:49:02.269Z,92.51
2017-12-27T09:51:29.920Z,92.29
2017-12-27T09:53:57.577Z,92.23
2017-12-27T09:56:28.355Z,92.05
2017-12-27T09:58:56.104Z,91.74
2017-12-27T10:01:24.723Z,91.15
2017-12-27T10:03:52.495Z,91.38
2017-12-27T10:06:20.261Z,91.26
2017-12-27T10:08:47.863Z,91.26
2017-12-27T10:11:15.559Z,90.98
2017-12-27T10:13:43.218Z,90.88
2017-12-27T10:16:10.994Z,90.88
2017-12-27T10:18:38.643Z,90.91
2017-12-27T10:21:06.259Z,90.94
2017-12-27T10:23:33.940Z,90.71
2017-12-27T10:26:02.825Z,90.44
2017-12-27T10:28:30.520Z,89.90
2017-12-27T10:30:58.755Z,89.88
2017-12-27T10:33:28.094Z,89.57
2017-12-27T10:35:55.830Z,89.35
2017-12-27T10:38:25.372Z,89.40
2017-12-27T10:40:53.168Z,88.78
2017-12-27T10:43:23.142Z,88.53
2017-12-27T10:45:53.474Z,87.74
2017-12-27T10:48:24.177Z,87.30
2017-12-27T10:50:52.878Z,87.50
2017-12-27T10:53:20.585Z,87.26
2017-12-27T10:55:51.083Z,87.07
2017-12-27T10:58:19.010Z,87.22
2017-12-27T11:00:47.438Z,87.04
2017-12-27T11:03:16.142Z,86.49
2017-12-27T11:05:47.624Z,86.54
2017-12-27T11:08:17.948Z,86.14
2017-12-27T11:10:46.364Z,85.97
2017-12-27T11:13:14.020Z,85.95
2017-12-27T11:15:41.970Z,85.56
2017-12-27T11:18:10.480Z,85.29
2017-12-27T11:20:38.202Z,85.23
2017-12-27T11:23:06.098Z,85.44
2017-12-27T11:25:35.384Z,85.19
2017-12-27T11:28:05.779Z,84.93
2017-12-27T11:30:33.671Z,84.41
2017-12-27T11:33:02.079Z,84.82
2017-12-27T11:35:29.820Z,84.66
2017-12-27T11:37:57.525Z,85.08
2017-12-27T11:40:25.176Z,85.28
2017-12-27T11:42:52.803Z,85.07
2017-12-27T11:45:20.407Z,85.31
2017-12-27T11:47:49.661Z,85.37
2017-12-27T11:50:17.497Z,85.28
2017-12-27T11:52:46.131Z,85.45
2017-12-27T11:55:14.081Z,85.10
2017-12-27T11:57:41.768Z,84.89
2017-12-27T12:00:11.244Z,85.17
2017-12-27T12:02:39.776Z,85.53
2017-12-27T12:05:09.799Z,85.71
2017-12-27T12:07:37.434Z,85.73
2017-12-27T12:10:08.101Z,85.87
2017-12-27T12:12:38.427Z,85.98
2017-12-27T12:15:06.353Z,86.30
2017-12-27T12:17:34.030Z,86.00
2017-12-27T12:20:01.744Z,86.01
2017-12-27T12:22:29.445Z,86.08
2017-12-27T12:24:57.141Z,86.41
2017-12-27T12:27:24.883Z,86.84
2017-12-27T12:29:52.543Z,87.12
2017-12-27T12:32:22.963Z,87.26
2017-12-27T12:34:52.908Z,87.46
2017-12-27T12:37:22.146Z,87.45
2017-12-27T12:39:49.981Z,87.37
2017-12-27T12:42:18.393Z,87.38
2017-12-27T12:44:46.151Z,87.25
2017-12-27T12:47:13.831Z,86.92
2017-12-27T12:49:43.249Z,87.06
2017-12-27T12:52:11.187Z,86.70
2017-12-27T12:54:38.890Z,86.98
2017-12-27T12:57:07.232Z,86.83
2017-12-27T12:59:34.952Z,86.81
2017-12-27T13:02:02.687Z,87.09
2017-12-27T13:04:30.691Z,87.24
2017-12-27T13:06:58.420Z,86.59
2017-12-27T13:09:26.194Z,86.63
2017-12-27T13:11:53.940Z,86.88
2017-12-27T13:14:21.693Z,87.06
2017-12-27T13:16:50.636Z,87.13
2017-12-27T13:19:18.398Z,87.20
2017-12-27T13:21:46.148Z,86.93
2017-12-27T13:24:13.852Z,87.08
2017-12-27T13:26:43.342Z,86.70
2017-12-27T13:29:11.823Z,86.56
2017-12-27T13:31:39.537Z,86.32
2017-12-27T13:34:07.243Z,86.40
2017-12-27T13:36:35.035Z,86.03
2017-12-27T13:39:02.796Z,86.09
2017-12-27T13:41:30.464Z,86.28
2017-12-27T13:43:58.130Z,86.20
2017-12-27T13:46:25.803Z,86.05
2017-12-27T13:48:55.737Z,86.04
2017-12-27T13:51:23.470Z,85.84
2017-12-27T13:53:52.929Z,85.98
2017-12-27T13:56:22.745Z,86.09
2017-12-27T13:58:50.473Z,86.25
2017-12-27T14:01:19.870Z,86.16
2017-12-27T14:03:49.196Z,86.36
2017-12-27T14:06:17.707Z,86.53
2017-12-27T14:08:45.455Z,86.90
2017-12-27T14:11:13.217Z,87.14
2017-12-27T14:13:40.894Z,87.50
2017-12-27T14:16:09.600Z,87.60
2017-12-27T14:18:39.973Z,87.63
2017-12-27T14:21:07.720Z,87.56
2017-12-27T14:23:35.672Z,87.59
2017-12-27T14:26:03.334Z,87.72
2017-12-27T14:28:30.988Z,87.78
2017-12-27T14:30:58.787Z,87.87
2017-12-27T14:33:29.016Z,87.92
2017-12-27T14:35:56.716Z,87.92
2017-12-27T14:38:24.450Z,87.93
2017-12-27T14:40:53.838Z,87.96
2017-12-27T14:43:23.193Z,87.93
2017-12-27T14:45:50.908Z,88.03
2017-12-27T14:48:18.552Z,88.00
2017-12-27T14:50:46.182Z,88.03
2017-12-27T14:53:14.816Z,88.05
2017-12-27T14:55:42.534Z,87.94
2017-12-27T14:58:10.200Z,88.08
2017-12-27T15:00:37.966Z,88.27
2017-12-27T15:03:06.567Z,88.51
2017-12-27T15:05:34.313Z,88.54
2017-12-27T15:08:02.016Z,88.67
2017-12-27T15:10:29.764Z,88.83
2017-12-27T15:12:59.238Z,89.04
2017-12-27T15:15:26.996Z,89.09
2017-12-27T15:17:55.727Z,89.20
2017-12-27T15:20:25.099Z,89.41
2017-12-27T15:22:52.928Z,89.45
2017-12-27T15:25:20.556Z,89.50
2017-12-27T15:27:48.254Z,89.60
2017-12-27T15:30:16.882Z,89.66
2017-12-27T15:32:44.610Z,89.84
2017-12-27T15:35:12.878Z,89.87
2017-12-27T15:37:40.595Z,90.23
2017-12-27T15:40:08.212Z,90.38
2017-12-27T15:42:35.928Z,90.55
2017-12-27T15:45:03.581Z,90.66
2017-12-27T15:47:32.718Z,90.87
2017-12-27T15:50:00.413Z,90.99
2017-12-27T15:52:28.042Z,91.02
2017-12-27T15:54:55.792Z,91.10
2017-12-27T15:57:24.508Z,91.12
2017-12-27T15:59:55.189Z,91.10
2017-12-27T16:02:23.752Z,91.01
2017-12-27T16:04:53.211Z,90.94
2017-12-27T16:07:21.019Z,91.13
2017-12-27T16:09:48.806Z,91.23
2017-12-27T16:12:16.453Z,91.48
2017-12-27T16:14:44.141Z,91.61
2017-12-27T16:17:11.839Z,91.62
2017-12-27T16:19:40.036Z,91.50
2017-12-27T16:22:07.790Z,91.43
2017-12-27T16:24:36.202Z,91.39
2017-12-27T16:27:05.557Z,91.45
2017-12-27T16:29:33.655Z,91.60
2017-12-27T16:32:01.318Z,91.73
2017-12-27T16:34:28.985Z,91.83
2017-12-27T16:36:56.639Z,91.89
2017-12-27T16:39:24.335Z,91.97
2017-12-27T16:41:52.021Z,92.03
2017-12-27T16:44:19.729Z,92.03
2017-12-27T16:46:47.351Z,91.96
2017-12-27T16:49:15.585Z,92.07
2017-12-27T16:51:43.589Z,92.19
2017-12-27T16:54:11.380Z,92.14
2017-12-27T16:56:40.731Z,92.22
2017-12-27T16:59:10.271Z,92.21
2017-12-27T17:01:38.376Z,91.98
2017-12-27T17:04:06.101Z,91.89
2017-12-27T17:06:33.748Z,91.76
2017-12-27T17:09:01.463Z,91.74
2017-12-27T17:11:29.919Z,91.63
2017-12-27T17:13:57.707Z,91.83
2017-12-27T17:16:25.486Z,91.78
2017-12-27T17:18:53.153Z,91.80
2017-12-27T17:21:21.033Z,91.90
2017-12-27T17:23:50.014Z,91.91
2017-12-27T17:26:18.482Z,92.02
2017-12-27T18:04:43.210Z,92.78
2017-12-27T18:07:11.632Z,92.62
2017-12-27T18:09:39.349Z,92.56
2017-12-27T18:12:07.125Z,92.53
2017-12-27T18:14:35.767Z,92.59
2017-12-27T18:17:04.889Z,92.68
2017-12-27T18:19:34.626Z,92.83
2017-12-27T18:22:02.523Z,92.84
2017-12-27T18:24:30.264Z,92.84
2017-12-27T18:26:57.955Z,92.91
2017-12-27T18:29:25.708Z,92.91
2017-12-27T18:31:53.354Z,92.97
2017-12-27T18:34:21.060Z,93.02
2017-12-27T18:36:48.795Z,93.05
2017-12-27T18:39:18.770Z,93.09
2017-12-27T18:41:46.445Z,93.17
2017-12-27T18:44:14.143Z,93.18
2017-12-27T18:46:42.038Z,93.22
2017-12-27T18:49:11.575Z,93.13
2017-12-27T18:51:39.262Z,93.11
2017-12-27T18:54:08.633Z,93.14
2017-12-27T18:56:38.232Z,93.24
2017-12-27T18:59:05.933Z,93.20
2017-12-27T19:01:33.621Z,93.16
2017-12-27T19:04:01.399Z,93.05
2017-12-27T19:06:29.187Z,92.88
2017-12-27T19:08:56.849Z,92.82
2017-12-27T19:11:24.610Z,92.79
2017-12-27T19:13:53.013Z,92.73
2017-12-27T19:16:21.881Z,92.72
2017-12-27T19:18:50.373Z,92.66
2017-12-27T19:21:18.384Z,92.53
2017-12-27T19:23:46.211Z,92.47
2017-12-27T19:26:13.907Z,92.30
2017-12-27T19:28:41.734Z,92.23
2017-12-27T19:31:11.195Z,91.94
2017-12-27T19:33:40.785Z,91.78
2017-12-27T19:36:08.544Z,91.50
2017-12-27T19:38:36.505Z,91.41
2017-12-27T19:41:05.996Z,91.31
2017-12-27T19:43:34.181Z,91.08
2017-12-27T19:46:02.929Z,91.09
2017-12-27T19:48:30.740Z,91.06
2017-12-27T19:51:00.381Z,91.20
2017-12-27T19:53:28.318Z,91.23
2017-12-27T19:55:56.901Z,91.27
2017-12-27T19:58:24.880Z,91.23
2017-12-27T20:00:52.757Z,91.18
2017-12-27T20:03:20.666Z,91.28
2017-12-27T20:05:49.513Z,91.66
2017-12-27T20:08:17.391Z,92.05
2017-12-27T20:10:45.261Z,92.30
2017-12-27T20:13:13.267Z,92.58
2017-12-27T20:15:41.226Z,93.01
2017-12-27T20:18:08.963Z,93.38
2017-12-27T20:20:36.843Z,93.71
2017-12-27T20:23:05.632Z,94.37
2017-12-27T20:25:33.408Z,94.67
2017-12-27T20:28:01.220Z,95.00
2017-12-27T20:30:29.079Z,95.27
2017-12-27T20:32:57.196Z,95.82
2017-12-27T20:35:24.917Z,96.13
2017-12-27T20:37:54.909Z,96.36
2017-12-27T20:40:24.614Z,96.73
2017-12-27T20:42:52.482Z,96.99
2017-12-27T20:45:20.333Z,97.19
2017-12-27T20:47:53.951Z,97.42
2017-12-27T20:50:21.915Z,97.60
2017-12-27T20:52:50.424Z,97.82
2017-12-27T20:55:18.291Z,97.91
2017-12-27T20:57:47.202Z,98.04
2017-12-27T21:00:15.061Z,98.20
2017-12-27T21:02:42.886Z,98.34
2017-12-27T21:05:10.785Z,98.48
2017-12-27T21:07:40.502Z,98.53
2017-12-27T21:10:08.582Z,98.52
2017-12-27T21:12:36.646Z,98.54
2017-12-27T21:15:04.617Z,98.64
2017-12-27T21:17:32.589Z,98.66
2017-12-27T21:20:00.629Z,98.67
2017-12-27T21:22:28.744Z,98.73
2017-12-27T21:24:56.756Z,98.71
2017-12-27T21:27:24.999Z,98.75
2017-12-27T21:29:57.763Z,98.70
2017-12-27T21:32:25.670Z,98.70
2017-12-27T21:34:53.891Z,98.73
2017-12-27T21:37:21.847Z,98.77
2017-12-27T21:39:52.384Z,98.75
2017-12-27T21:42:20.296Z,98.75
2017-12-27T21:44:48.177Z,98.82
2017-12-27T21:50:30.426Z,98.89
2017-12-27T21:52:58.232Z,98.95
2017-12-27T21:55:25.982Z,98.95
2017-12-27T21:57:56.506Z,98.94
2017-12-27T22:00:31.634Z,98.88
2017-12-27T22:03:02.589Z,98.90
2017-12-27T22:05:30.578Z,98.87
2017-12-27T22:08:00.035Z,98.92
2017-12-27T22:10:29.823Z,98.90
2017-12-27T22:12:57.610Z,98.91
2017-12-27T22:15:27.332Z,98.93
2017-12-27T22:17:55.263Z,98.94
2017-12-27T22:20:32.574Z,98.95
2017-12-27T22:23:00.388Z,99.06
2017-12-27T22:25:28.087Z,99.07
2017-12-27T22:27:55.842Z,99.16
2017-12-27T22:30:23.557Z,99.35
2017-12-27T22:32:53.236Z,99.45
2017-12-27T22:35:20.916Z,99.45
2017-12-27T22:37:48.597Z,99.46
2017-12-27T22:40:16.414Z,99.49
2017-12-27T22:42:44.015Z,99.50
2017-12-27T22:45:13.594Z,99.59
2017-12-27T22:47:41.330Z,99.63
2017-12-27T22:50:09.043Z,99.61
2017-12-27T22:52:36.692Z,99.63
2017-12-27T22:55:04.381Z,99.69
2017-12-27T22:57:32.005Z,99.66
2017-12-27T22:59:59.765Z,99.66
2017-12-27T23:02:27.429Z,99.70
2017-12-27T23:04:55.111Z,99.77
2017-12-27T23:07:22.815Z,99.79
2017-12-27T23:09:51.396Z,99.77
2017-12-27T23:12:19.088Z,99.76
2017-12-27T23:14:46.748Z,99.75
2017-12-27T23:17:14.467Z,99.87
2017-12-27T23:19:42.138Z,99.88
2017-12-27T23:22:09.832Z,99.88
2017-12-27T23:24:37.453Z,99.96
2017-12-27T23:27:05.157Z,99.95
2017-12-27T23:29:32.816Z,99.98
2017-12-27T23:32:03.248Z,99.95
2017-12-27T23:34:31.014Z,99.95
2017-12-27T23:36:58.666Z,100.00
2017-12-27T23:39:26.342Z,100.00
2017-12-27T23:41:54.048Z,100.00
2017-12-27T23:44:21.718Z,100.00
2017-12-27T23:46:49.348Z,100.00
2017-12-27T23:49:17.006Z,100.00
2017-12-27T23:51:44.598Z,100.00
2017-12-27T23:54:13.220Z,100.00
2017-12-27T23:56:42.596Z,100.00
2017-12-27T23:59:10.333Z,100.00
